sensor_id;sensor_type;location;lat;lon;timestamp;P1;durP1;ratioP1;P2;durP2;ratioP2
8562;SDS011;16392;52.508;13.468;2023-02-15T00:00:07;363.93;;;66.30;;
8562;SDS011;16392;52.508;13.468;2023-02-15T00:02:35;365.70;;;66.83;;
8562;SDS011;16392;52.508;13.468;2023-02-15T00:05:02;365.97;;;68.07;;
8562;SDS011;16392;52.508;13.468;2023-02-15T00:07:30;367.30;;;71.13;;
8562;SDS011;16392;52.508;13.468;2023-02-15T00:09:58;361.87;;;64.77;;
8562;SDS011;16392;52.508;13.468;2023-02-15T00:12:25;361.67;;;64.87;;
8562;SDS011;16392;52.508;13.468;2023-02-15T00:14:51;363.63;;;65.30;;
8562;SDS011;16392;52.508;13.468;2023-02-15T00:17:18;360.63;;;64.43;;
8562;SDS011;16392;52.508;13.468;2023-02-15T00:19:46;362.53;;;67.73;;
8562;SDS011;16392;52.508;13.468;2023-02-15T00:22:13;357.73;;;64.63;;
8562;SDS011;16392;52.508;13.468;2023-02-15T00:24:39;358.47;;;65.37;;
8562;SDS011;16392;52.508;13.468;2023-02-15T00:27:07;358.43;;;64.77;;
8562;SDS011;16392;52.508;13.468;2023-02-15T00:29:35;360.10;;;66.93;;
8562;SDS011;16392;52.508;13.468;2023-02-15T00:32:01;359.60;;;64.17;;
8562;SDS011;16392;52.508;13.468;2023-02-15T00:34:28;362.63;;;66.37;;
8562;SDS011;16392;52.508;13.468;2023-02-15T00:36:55;358.60;;;63.97;;
8562;SDS011;16392;52.508;13.468;2023-02-15T00:39:22;358.53;;;66.80;;
8562;SDS011;16392;52.508;13.468;2023-02-15T00:41:49;357.90;;;65.57;;
8562;SDS011;16392;52.508;13.468;2023-02-15T00:44:17;359.80;;;64.90;;
8562;SDS011;16392;52.508;13.468;2023-02-15T00:46:44;360.10;;;66.80;;
8562;SDS011;16392;52.508;13.468;2023-02-15T00:49:11;357.93;;;65.60;;
8562;SDS011;16392;52.508;13.468;2023-02-15T00:51:37;361.87;;;70.83;;
8562;SDS011;16392;52.508;13.468;2023-02-15T00:54:05;359.07;;;67.27;;
8562;SDS011;16392;52.508;13.468;2023-02-15T00:56:32;361.00;;;71.70;;
8562;SDS011;16392;52.508;13.468;2023-02-15T00:58:59;357.40;;;66.33;;
8562;SDS011;16392;52.508;13.468;2023-02-15T01:01:27;354.37;;;63.47;;
8562;SDS011;16392;52.508;13.468;2023-02-15T01:03:53;358.47;;;70.33;;
8562;SDS011;16392;52.508;13.468;2023-02-15T01:06:20;356.53;;;65.73;;
8562;SDS011;16392;52.508;13.468;2023-02-15T01:08:47;357.57;;;66.97;;
8562;SDS011;16392;52.508;13.468;2023-02-15T01:11:15;359.93;;;64.33;;
8562;SDS011;16392;52.508;13.468;2023-02-15T01:13:46;353.73;;;64.70;;
8562;SDS011;16392;52.508;13.468;2023-02-15T01:16:13;353.37;;;64.27;;
8562;SDS011;16392;52.508;13.468;2023-02-15T01:18:41;355.33;;;66.03;;
8562;SDS011;16392;52.508;13.468;2023-02-15T01:21:08;355.27;;;66.93;;
8562;SDS011;16392;52.508;13.468;2023-02-15T01:23:36;356.60;;;63.30;;
8562;SDS011;16392;52.508;13.468;2023-02-15T01:26:03;357.73;;;64.90;;
8562;SDS011;16392;52.508;13.468;2023-02-15T01:28:30;358.87;;;67.87;;
8562;SDS011;16392;52.508;13.468;2023-02-15T01:30:57;364.37;;;92.03;;
8562;SDS011;16392;52.508;13.468;2023-02-15T01:33:24;353.80;;;65.47;;
8562;SDS011;16392;52.508;13.468;2023-02-15T01:35:56;355.97;;;68.97;;
8562;SDS011;16392;52.508;13.468;2023-02-15T01:38:23;354.07;;;63.63;;
8562;SDS011;16392;52.508;13.468;2023-02-15T01:40:50;352.70;;;64.73;;
8562;SDS011;16392;52.508;13.468;2023-02-15T01:43:17;356.20;;;68.03;;
8562;SDS011;16392;52.508;13.468;2023-02-15T01:45:44;355.20;;;66.33;;
8562;SDS011;16392;52.508;13.468;2023-02-15T01:48:16;354.03;;;66.20;;
8562;SDS011;16392;52.508;13.468;2023-02-15T01:50:47;354.50;;;64.73;;
8562;SDS011;16392;52.508;13.468;2023-02-15T01:53:19;352.10;;;63.20;;
8562;SDS011;16392;52.508;13.468;2023-02-15T01:55:50;355.17;;;72.53;;
8562;SDS011;16392;52.508;13.468;2023-02-15T01:58:21;353.70;;;64.53;;
8562;SDS011;16392;52.508;13.468;2023-02-15T02:00:50;354.40;;;66.67;;
8562;SDS011;16392;52.508;13.468;2023-02-15T02:03:17;351.77;;;66.17;;
8562;SDS011;16392;52.508;13.468;2023-02-15T02:05:48;354.33;;;65.10;;
8562;SDS011;16392;52.508;13.468;2023-02-15T02:08:15;352.17;;;65.17;;
8562;SDS011;16392;52.508;13.468;2023-02-15T02:10:43;353.40;;;65.47;;
8562;SDS011;16392;52.508;13.468;2023-02-15T02:13:10;348.67;;;65.20;;
8562;SDS011;16392;52.508;13.468;2023-02-15T02:15:38;352.43;;;64.03;;
8562;SDS011;16392;52.508;13.468;2023-02-15T02:18:15;353.00;;;66.20;;
8562;SDS011;16392;52.508;13.468;2023-02-15T02:21:02;351.37;;;64.53;;
8562;SDS011;16392;52.508;13.468;2023-02-15T02:23:59;348.67;;;63.97;;
8562;SDS011;16392;52.508;13.468;2023-02-15T02:26:47;350.47;;;67.10;;
8562;SDS011;16392;52.508;13.468;2023-02-15T02:29:48;349.97;;;69.50;;
8562;SDS011;16392;52.508;13.468;2023-02-15T02:32:53;348.93;;;68.17;;
8562;SDS011;16392;52.508;13.468;2023-02-15T02:35:34;352.77;;;66.23;;
8562;SDS011;16392;52.508;13.468;2023-02-15T02:38:06;348.83;;;64.63;;
8562;SDS011;16392;52.508;13.468;2023-02-15T02:40:43;356.43;;;70.20;;
8562;SDS011;16392;52.508;13.468;2023-02-15T02:43:19;349.13;;;64.60;;
8562;SDS011;16392;52.508;13.468;2023-02-15T02:45:50;348.97;;;67.17;;
8562;SDS011;16392;52.508;13.468;2023-02-15T02:48:22;352.10;;;69.67;;
8562;SDS011;16392;52.508;13.468;2023-02-15T02:50:52;347.97;;;62.87;;
8562;SDS011;16392;52.508;13.468;2023-02-15T02:53:19;348.27;;;62.20;;
8562;SDS011;16392;52.508;13.468;2023-02-15T02:55:46;345.67;;;62.73;;
8562;SDS011;16392;52.508;13.468;2023-02-15T02:58:16;350.27;;;64.23;;
8562;SDS011;16392;52.508;13.468;2023-02-15T03:00:46;344.23;;;62.73;;
8562;SDS011;16392;52.508;13.468;2023-02-15T03:03:19;350.17;;;65.93;;
8562;SDS011;16392;52.508;13.468;2023-02-15T03:05:51;356.40;;;66.67;;
8562;SDS011;16392;52.508;13.468;2023-02-15T03:08:21;344.47;;;63.20;;
8562;SDS011;16392;52.508;13.468;2023-02-15T03:10:53;342.33;;;63.33;;
8562;SDS011;16392;52.508;13.468;2023-02-15T03:13:22;345.03;;;63.13;;
8562;SDS011;16392;52.508;13.468;2023-02-15T03:15:49;350.23;;;75.97;;
8562;SDS011;16392;52.508;13.468;2023-02-15T03:18:38;341.40;;;65.70;;
8562;SDS011;16392;52.508;13.468;2023-02-15T03:21:07;343.17;;;62.60;;
8562;SDS011;16392;52.508;13.468;2023-02-15T03:23:47;344.10;;;66.70;;
8562;SDS011;16392;52.508;13.468;2023-02-15T03:26:18;345.03;;;64.90;;
8562;SDS011;16392;52.508;13.468;2023-02-15T03:28:47;344.97;;;65.60;;
8562;SDS011;16392;52.508;13.468;2023-02-15T03:31:16;343.33;;;65.03;;
8562;SDS011;16392;52.508;13.468;2023-02-15T03:33:48;346.03;;;65.17;;
8562;SDS011;16392;52.508;13.468;2023-02-15T03:36:20;342.80;;;64.93;;
8562;SDS011;16392;52.508;13.468;2023-02-15T03:38:51;346.33;;;66.60;;
8562;SDS011;16392;52.508;13.468;2023-02-15T03:41:24;339.30;;;63.47;;
8562;SDS011;16392;52.508;13.468;2023-02-15T03:43:55;354.20;;;69.80;;
8562;SDS011;16392;52.508;13.468;2023-02-15T03:46:24;343.23;;;65.57;;
8562;SDS011;16392;52.508;13.468;2023-02-15T03:48:58;341.23;;;66.97;;
8562;SDS011;16392;52.508;13.468;2023-02-15T03:51:30;341.20;;;64.60;;
8562;SDS011;16392;52.508;13.468;2023-02-15T03:54:00;336.90;;;63.50;;
8562;SDS011;16392;52.508;13.468;2023-02-15T03:56:29;334.37;;;60.17;;
8562;SDS011;16392;52.508;13.468;2023-02-15T03:58:56;340.87;;;67.47;;
8562;SDS011;16392;52.508;13.468;2023-02-15T04:01:43;338.23;;;68.20;;
8562;SDS011;16392;52.508;13.468;2023-02-15T04:04:25;338.30;;;65.87;;
8562;SDS011;16392;52.508;13.468;2023-02-15T04:06:56;340.40;;;65.07;;
8562;SDS011;16392;52.508;13.468;2023-02-15T04:09:23;339.37;;;62.70;;
8562;SDS011;16392;52.508;13.468;2023-02-15T04:12:07;333.90;;;62.50;;
8562;SDS011;16392;52.508;13.468;2023-02-15T04:14:34;339.57;;;67.17;;
8562;SDS011;16392;52.508;13.468;2023-02-15T04:17:18;331.27;;;62.07;;
8562;SDS011;16392;52.508;13.468;2023-02-15T04:19:46;331.90;;;61.50;;
8562;SDS011;16392;52.508;13.468;2023-02-15T04:22:30;330.40;;;60.07;;
8562;SDS011;16392;52.508;13.468;2023-02-15T04:25:15;332.93;;;61.63;;
8562;SDS011;16392;52.508;13.468;2023-02-15T04:27:42;331.03;;;61.93;;
8562;SDS011;16392;52.508;13.468;2023-02-15T04:30:10;332.47;;;62.70;;
8562;SDS011;16392;52.508;13.468;2023-02-15T04:32:39;332.27;;;62.37;;
8562;SDS011;16392;52.508;13.468;2023-02-15T04:35:07;328.27;;;61.73;;
8562;SDS011;16392;52.508;13.468;2023-02-15T04:37:34;329.43;;;64.80;;
8562;SDS011;16392;52.508;13.468;2023-02-15T04:40:02;330.87;;;61.50;;
8562;SDS011;16392;52.508;13.468;2023-02-15T04:42:29;334.57;;;66.50;;
8562;SDS011;16392;52.508;13.468;2023-02-15T04:44:55;334.23;;;60.07;;
8562;SDS011;16392;52.508;13.468;2023-02-15T04:47:22;329.57;;;61.73;;
8562;SDS011;16392;52.508;13.468;2023-02-15T04:49:48;335.17;;;61.87;;
8562;SDS011;16392;52.508;13.468;2023-02-15T04:52:16;330.67;;;62.13;;
8562;SDS011;16392;52.508;13.468;2023-02-15T04:54:43;329.73;;;62.53;;
8562;SDS011;16392;52.508;13.468;2023-02-15T04:57:10;325.67;;;59.77;;
8562;SDS011;16392;52.508;13.468;2023-02-15T04:59:37;331.40;;;67.00;;
8562;SDS011;16392;52.508;13.468;2023-02-15T05:02:03;325.87;;;60.67;;
8562;SDS011;16392;52.508;13.468;2023-02-15T05:04:30;329.73;;;65.43;;
8562;SDS011;16392;52.508;13.468;2023-02-15T05:06:57;330.70;;;60.80;;
8562;SDS011;16392;52.508;13.468;2023-02-15T05:09:25;326.43;;;62.70;;
8562;SDS011;16392;52.508;13.468;2023-02-15T05:11:51;343.27;;;71.80;;
8562;SDS011;16392;52.508;13.468;2023-02-15T05:14:18;325.17;;;59.47;;
8562;SDS011;16392;52.508;13.468;2023-02-15T05:16:44;332.30;;;77.40;;
8562;SDS011;16392;52.508;13.468;2023-02-15T05:19:11;329.17;;;63.60;;
8562;SDS011;16392;52.508;13.468;2023-02-15T05:21:37;328.33;;;62.37;;
8562;SDS011;16392;52.508;13.468;2023-02-15T05:24:04;325.43;;;61.87;;
8562;SDS011;16392;52.508;13.468;2023-02-15T05:26:53;327.60;;;65.27;;
8562;SDS011;16392;52.508;13.468;2023-02-15T05:29:38;325.40;;;62.37;;
8562;SDS011;16392;52.508;13.468;2023-02-15T05:32:05;326.03;;;61.43;;
8562;SDS011;16392;52.508;13.468;2023-02-15T05:34:31;329.27;;;64.57;;
8562;SDS011;16392;52.508;13.468;2023-02-15T05:36:58;325.70;;;64.03;;
8562;SDS011;16392;52.508;13.468;2023-02-15T05:39:25;326.33;;;63.17;;
8562;SDS011;16392;52.508;13.468;2023-02-15T05:41:51;325.67;;;62.70;;
8562;SDS011;16392;52.508;13.468;2023-02-15T05:44:19;330.43;;;64.13;;
8562;SDS011;16392;52.508;13.468;2023-02-15T05:46:46;325.77;;;64.47;;
8562;SDS011;16392;52.508;13.468;2023-02-15T05:49:12;325.50;;;63.07;;
8562;SDS011;16392;52.508;13.468;2023-02-15T05:51:39;329.07;;;64.10;;
8562;SDS011;16392;52.508;13.468;2023-02-15T05:54:05;330.00;;;65.20;;
8562;SDS011;16392;52.508;13.468;2023-02-15T05:56:32;332.00;;;69.10;;
8562;SDS011;16392;52.508;13.468;2023-02-15T05:59:00;327.37;;;61.27;;
8562;SDS011;16392;52.508;13.468;2023-02-15T06:01:27;325.90;;;63.77;;
8562;SDS011;16392;52.508;13.468;2023-02-15T06:03:54;328.30;;;65.13;;
8562;SDS011;16392;52.508;13.468;2023-02-15T06:06:24;326.73;;;63.57;;
8562;SDS011;16392;52.508;13.468;2023-02-15T06:08:50;323.17;;;61.33;;
8562;SDS011;16392;52.508;13.468;2023-02-15T06:11:17;324.70;;;62.03;;
8562;SDS011;16392;52.508;13.468;2023-02-15T06:13:43;324.67;;;65.13;;
8562;SDS011;16392;52.508;13.468;2023-02-15T06:16:11;325.13;;;63.27;;
8562;SDS011;16392;52.508;13.468;2023-02-15T06:18:38;325.63;;;65.37;;
8562;SDS011;16392;52.508;13.468;2023-02-15T06:21:04;323.10;;;61.50;;
8562;SDS011;16392;52.508;13.468;2023-02-15T06:23:31;328.37;;;64.27;;
8562;SDS011;16392;52.508;13.468;2023-02-15T06:25:58;324.57;;;63.67;;
8562;SDS011;16392;52.508;13.468;2023-02-15T06:28:24;324.83;;;64.70;;
8562;SDS011;16392;52.508;13.468;2023-02-15T06:30:51;321.83;;;62.50;;
8562;SDS011;16392;52.508;13.468;2023-02-15T06:33:19;321.30;;;60.23;;
8562;SDS011;16392;52.508;13.468;2023-02-15T06:35:46;322.23;;;65.03;;
8562;SDS011;16392;52.508;13.468;2023-02-15T06:38:13;321.90;;;62.53;;
8562;SDS011;16392;52.508;13.468;2023-02-15T06:40:40;319.90;;;62.10;;
8562;SDS011;16392;52.508;13.468;2023-02-15T06:43:06;321.47;;;60.30;;
8562;SDS011;16392;52.508;13.468;2023-02-15T06:45:33;320.57;;;59.33;;
8562;SDS011;16392;52.508;13.468;2023-02-15T06:48:00;326.13;;;64.17;;
8562;SDS011;16392;52.508;13.468;2023-02-15T06:50:28;322.80;;;59.13;;
8562;SDS011;16392;52.508;13.468;2023-02-15T06:52:55;325.50;;;64.00;;
8562;SDS011;16392;52.508;13.468;2023-02-15T06:55:22;322.07;;;59.77;;
8562;SDS011;16392;52.508;13.468;2023-02-15T06:57:49;327.17;;;65.13;;
8562;SDS011;16392;52.508;13.468;2023-02-15T07:00:16;321.40;;;61.30;;
8562;SDS011;16392;52.508;13.468;2023-02-15T07:02:43;327.93;;;68.87;;
8562;SDS011;16392;52.508;13.468;2023-02-15T07:05:10;326.10;;;66.53;;
8562;SDS011;16392;52.508;13.468;2023-02-15T07:07:38;329.17;;;66.07;;
8562;SDS011;16392;52.508;13.468;2023-02-15T07:10:05;326.83;;;62.27;;
8562;SDS011;16392;52.508;13.468;2023-02-15T07:12:32;326.37;;;67.87;;
8562;SDS011;16392;52.508;13.468;2023-02-15T07:15:07;324.37;;;63.40;;
8562;SDS011;16392;52.508;13.468;2023-02-15T07:17:34;324.13;;;63.30;;
8562;SDS011;16392;52.508;13.468;2023-02-15T07:20:02;328.30;;;64.77;;
8562;SDS011;16392;52.508;13.468;2023-02-15T07:22:29;324.40;;;61.13;;
8562;SDS011;16392;52.508;13.468;2023-02-15T07:24:57;325.70;;;62.20;;
8562;SDS011;16392;52.508;13.468;2023-02-15T07:27:24;327.73;;;64.30;;
8562;SDS011;16392;52.508;13.468;2023-02-15T07:29:50;330.67;;;71.00;;
8562;SDS011;16392;52.508;13.468;2023-02-15T07:32:17;330.00;;;68.10;;
8562;SDS011;16392;52.508;13.468;2023-02-15T07:34:43;343.50;;;65.97;;
8562;SDS011;16392;52.508;13.468;2023-02-15T07:37:10;329.47;;;63.63;;
8562;SDS011;16392;52.508;13.468;2023-02-15T07:39:37;328.93;;;62.23;;
8562;SDS011;16392;52.508;13.468;2023-02-15T07:42:05;326.63;;;61.87;;
8562;SDS011;16392;52.508;13.468;2023-02-15T07:44:32;336.33;;;72.17;;
8562;SDS011;16392;52.508;13.468;2023-02-15T07:46:59;328.93;;;65.37;;
8562;SDS011;16392;52.508;13.468;2023-02-15T07:49:26;331.60;;;64.20;;
8562;SDS011;16392;52.508;13.468;2023-02-15T07:51:53;328.47;;;63.23;;
8562;SDS011;16392;52.508;13.468;2023-02-15T07:54:19;330.07;;;67.73;;
8562;SDS011;16392;52.508;13.468;2023-02-15T07:56:46;332.53;;;67.27;;
8562;SDS011;16392;52.508;13.468;2023-02-15T07:59:14;333.23;;;69.13;;
8562;SDS011;16392;52.508;13.468;2023-02-15T08:01:41;332.47;;;64.13;;
8562;SDS011;16392;52.508;13.468;2023-02-15T08:04:07;335.93;;;71.30;;
8562;SDS011;16392;52.508;13.468;2023-02-15T08:06:36;337.20;;;79.93;;
8562;SDS011;16392;52.508;13.468;2023-02-15T08:09:03;328.77;;;61.60;;
8562;SDS011;16392;52.508;13.468;2023-02-15T08:11:32;329.90;;;61.90;;
8562;SDS011;16392;52.508;13.468;2023-02-15T08:14:02;329.40;;;61.57;;
8562;SDS011;16392;52.508;13.468;2023-02-15T08:16:32;333.00;;;61.33;;
8562;SDS011;16392;52.508;13.468;2023-02-15T08:19:01;330.40;;;60.23;;
8562;SDS011;16392;52.508;13.468;2023-02-15T08:21:30;332.40;;;61.53;;
8562;SDS011;16392;52.508;13.468;2023-02-15T08:23:58;330.67;;;59.67;;
8562;SDS011;16392;52.508;13.468;2023-02-15T08:26:25;333.33;;;61.37;;
8562;SDS011;16392;52.508;13.468;2023-02-15T08:28:53;332.27;;;62.20;;
8562;SDS011;16392;52.508;13.468;2023-02-15T08:31:21;328.67;;;60.87;;
8562;SDS011;16392;52.508;13.468;2023-02-15T08:33:50;331.40;;;61.33;;
8562;SDS011;16392;52.508;13.468;2023-02-15T08:36:18;331.60;;;59.47;;
8562;SDS011;16392;52.508;13.468;2023-02-15T08:38:47;332.30;;;63.10;;
8562;SDS011;16392;52.508;13.468;2023-02-15T08:41:14;339.93;;;63.87;;
8562;SDS011;16392;52.508;13.468;2023-02-15T08:43:44;337.17;;;63.40;;
8562;SDS011;16392;52.508;13.468;2023-02-15T08:46:12;334.93;;;60.70;;
8562;SDS011;16392;52.508;13.468;2023-02-15T08:48:40;339.13;;;65.03;;
8562;SDS011;16392;52.508;13.468;2023-02-15T08:51:09;338.23;;;62.70;;
8562;SDS011;16392;52.508;13.468;2023-02-15T08:53:37;337.40;;;61.90;;
8562;SDS011;16392;52.508;13.468;2023-02-15T08:56:05;338.50;;;62.07;;
8562;SDS011;16392;52.508;13.468;2023-02-15T08:58:32;336.20;;;61.27;;
8562;SDS011;16392;52.508;13.468;2023-02-15T09:00:59;342.60;;;70.70;;
8562;SDS011;16392;52.508;13.468;2023-02-15T09:03:27;351.47;;;62.93;;
8562;SDS011;16392;52.508;13.468;2023-02-15T09:05:56;342.23;;;64.43;;
8562;SDS011;16392;52.508;13.468;2023-02-15T09:08:25;340.90;;;61.47;;
8562;SDS011;16392;52.508;13.468;2023-02-15T09:10:52;340.53;;;63.97;;
8562;SDS011;16392;52.508;13.468;2023-02-15T09:13:19;344.43;;;63.00;;
8562;SDS011;16392;52.508;13.468;2023-02-15T09:15:47;342.50;;;63.97;;
8562;SDS011;16392;52.508;13.468;2023-02-15T09:18:13;348.13;;;65.47;;
8562;SDS011;16392;52.508;13.468;2023-02-15T09:20:42;347.87;;;64.33;;
8562;SDS011;16392;52.508;13.468;2023-02-15T09:23:10;346.30;;;64.40;;
8562;SDS011;16392;52.508;13.468;2023-02-15T09:25:38;344.57;;;61.57;;
8562;SDS011;16392;52.508;13.468;2023-02-15T09:28:04;346.23;;;61.63;;
8562;SDS011;16392;52.508;13.468;2023-02-15T09:30:31;349.07;;;64.00;;
8562;SDS011;16392;52.508;13.468;2023-02-15T09:32:58;349.53;;;63.50;;
8562;SDS011;16392;52.508;13.468;2023-02-15T09:35:24;352.43;;;63.13;;
8562;SDS011;16392;52.508;13.468;2023-02-15T09:37:51;353.80;;;63.33;;
8562;SDS011;16392;52.508;13.468;2023-02-15T09:40:17;353.40;;;62.73;;
8562;SDS011;16392;52.508;13.468;2023-02-15T09:42:58;352.60;;;64.90;;
8562;SDS011;16392;52.508;13.468;2023-02-15T09:45:50;352.17;;;64.67;;
8562;SDS011;16392;52.508;13.468;2023-02-15T09:48:40;354.40;;;63.33;;
8562;SDS011;16392;52.508;13.468;2023-02-15T09:51:18;353.90;;;64.63;;
8562;SDS011;16392;52.508;13.468;2023-02-15T09:54:03;354.10;;;62.27;;
8562;SDS011;16392;52.508;13.468;2023-02-15T09:56:38;359.73;;;68.80;;
8562;SDS011;16392;52.508;13.468;2023-02-15T09:59:14;361.37;;;66.27;;
8562;SDS011;16392;52.508;13.468;2023-02-15T10:01:49;358.30;;;63.40;;
8562;SDS011;16392;52.508;13.468;2023-02-15T10:04:27;363.87;;;65.53;;
8562;SDS011;16392;52.508;13.468;2023-02-15T10:07:12;363.70;;;64.07;;
8562;SDS011;16392;52.508;13.468;2023-02-15T10:10:02;366.47;;;67.60;;
8562;SDS011;16392;52.508;13.468;2023-02-15T10:12:44;365.33;;;63.57;;
8562;SDS011;16392;52.508;13.468;2023-02-15T10:15:25;365.63;;;65.13;;
8562;SDS011;16392;52.508;13.468;2023-02-15T10:21:00;364.03;;;64.70;;
8562;SDS011;16392;52.508;13.468;2023-02-15T10:23:43;367.40;;;65.30;;
8562;SDS011;16392;52.508;13.468;2023-02-15T10:26:21;368.57;;;67.07;;
8562;SDS011;16392;52.508;13.468;2023-02-15T10:28:52;372.73;;;67.63;;
8562;SDS011;16392;52.508;13.468;2023-02-15T10:31:25;373.40;;;68.17;;
8562;SDS011;16392;52.508;13.468;2023-02-15T10:34:03;374.07;;;67.47;;
8562;SDS011;16392;52.508;13.468;2023-02-15T10:36:41;373.17;;;67.10;;
8562;SDS011;16392;52.508;13.468;2023-02-15T10:39:20;373.43;;;65.77;;
8562;SDS011;16392;52.508;13.468;2023-02-15T10:41:54;377.33;;;67.67;;
8562;SDS011;16392;52.508;13.468;2023-02-15T10:44:34;376.07;;;68.57;;
8562;SDS011;16392;52.508;13.468;2023-02-15T10:47:17;378.47;;;67.57;;
8562;SDS011;16392;52.508;13.468;2023-02-15T10:50:03;377.83;;;67.03;;
8562;SDS011;16392;52.508;13.468;2023-02-15T10:52:42;378.57;;;66.67;;
8562;SDS011;16392;52.508;13.468;2023-02-15T10:55:24;384.07;;;67.67;;
8562;SDS011;16392;52.508;13.468;2023-02-15T10:58:00;385.03;;;69.27;;
8562;SDS011;16392;52.508;13.468;2023-02-15T11:00:35;387.77;;;71.23;;
8562;SDS011;16392;52.508;13.468;2023-02-15T11:03:22;387.73;;;69.43;;
8562;SDS011;16392;52.508;13.468;2023-02-15T11:05:59;391.80;;;69.90;;
8562;SDS011;16392;52.508;13.468;2023-02-15T11:08:31;390.83;;;69.53;;
8562;SDS011;16392;52.508;13.468;2023-02-15T11:11:00;393.90;;;71.17;;
8562;SDS011;16392;52.508;13.468;2023-02-15T11:13:32;397.73;;;71.60;;
8562;SDS011;16392;52.508;13.468;2023-02-15T11:16:04;393.37;;;69.53;;
8562;SDS011;16392;52.508;13.468;2023-02-15T11:18:36;409.47;;;74.90;;
8562;SDS011;16392;52.508;13.468;2023-02-15T11:21:07;399.67;;;73.77;;
8562;SDS011;16392;52.508;13.468;2023-02-15T11:23:40;401.27;;;74.30;;
8562;SDS011;16392;52.508;13.468;2023-02-15T11:26:11;399.53;;;73.07;;
8562;SDS011;16392;52.508;13.468;2023-02-15T11:28:43;402.83;;;74.47;;
8562;SDS011;16392;52.508;13.468;2023-02-15T11:31:15;413.60;;;75.40;;
8562;SDS011;16392;52.508;13.468;2023-02-15T11:33:46;403.52;;;74.65;;
8562;SDS011;16392;52.508;13.468;2023-02-15T11:36:17;402.60;;;74.03;;
8562;SDS011;16392;52.508;13.468;2023-02-15T11:38:47;403.00;;;73.83;;
8562;SDS011;16392;52.508;13.468;2023-02-15T11:41:18;402.93;;;74.07;;
8562;SDS011;16392;52.508;13.468;2023-02-15T11:43:49;410.63;;;74.50;;
8562;SDS011;16392;52.508;13.468;2023-02-15T11:46:23;404.77;;;74.32;;
8562;SDS011;16392;52.508;13.468;2023-02-15T11:48:51;405.60;;;74.57;;
8562;SDS011;16392;52.508;13.468;2023-02-15T11:51:19;405.35;;;75.78;;
8562;SDS011;16392;52.508;13.468;2023-02-15T11:53:48;407.92;;;78.35;;
8562;SDS011;16392;52.508;13.468;2023-02-15T11:56:16;415.48;;;77.32;;
8562;SDS011;16392;52.508;13.468;2023-02-15T11:58:45;414.08;;;79.97;;
8562;SDS011;16392;52.508;13.468;2023-02-15T12:01:16;408.83;;;76.70;;
8562;SDS011;16392;52.508;13.468;2023-02-15T12:03:49;416.88;;;80.85;;
8562;SDS011;16392;52.508;13.468;2023-02-15T12:06:22;416.55;;;79.78;;
8562;SDS011;16392;52.508;13.468;2023-02-15T12:08:52;419.00;;;84.70;;
8562;SDS011;16392;52.508;13.468;2023-02-15T12:11:26;417.63;;;80.72;;
8562;SDS011;16392;52.508;13.468;2023-02-15T12:13:58;419.88;;;84.03;;
8562;SDS011;16392;52.508;13.468;2023-02-15T12:16:25;420.70;;;86.97;;
8562;SDS011;16392;52.508;13.468;2023-02-15T12:18:55;424.50;;;89.18;;
8562;SDS011;16392;52.508;13.468;2023-02-15T12:21:25;431.25;;;96.43;;
8562;SDS011;16392;52.508;13.468;2023-02-15T12:23:55;423.92;;;86.72;;
8562;SDS011;16392;52.508;13.468;2023-02-15T12:26:25;422.25;;;84.63;;
8562;SDS011;16392;52.508;13.468;2023-02-15T12:28:53;426.52;;;84.80;;
8562;SDS011;16392;52.508;13.468;2023-02-15T12:31:23;418.63;;;81.47;;
8562;SDS011;16392;52.508;13.468;2023-02-15T12:33:53;418.55;;;82.97;;
8562;SDS011;16392;52.508;13.468;2023-02-15T12:36:24;420.55;;;84.93;;
8562;SDS011;16392;52.508;13.468;2023-02-15T12:39:16;418.97;;;84.60;;
8562;SDS011;16392;52.508;13.468;2023-02-15T12:41:46;415.13;;;82.37;;
8562;SDS011;16392;52.508;13.468;2023-02-15T12:44:24;414.83;;;83.38;;
8562;SDS011;16392;52.508;13.468;2023-02-15T12:46:57;411.90;;;78.63;;
8562;SDS011;16392;52.508;13.468;2023-02-15T12:49:27;411.45;;;79.18;;
8562;SDS011;16392;52.508;13.468;2023-02-15T12:51:55;410.25;;;78.50;;
8562;SDS011;16392;52.508;13.468;2023-02-15T12:54:36;410.83;;;79.00;;
8562;SDS011;16392;52.508;13.468;2023-02-15T12:57:17;414.03;;;80.10;;
8562;SDS011;16392;52.508;13.468;2023-02-15T12:59:50;410.42;;;80.18;;
8562;SDS011;16392;52.508;13.468;2023-02-15T13:02:20;411.35;;;78.30;;
8562;SDS011;16392;52.508;13.468;2023-02-15T13:04:51;417.27;;;81.20;;
8562;SDS011;16392;52.508;13.468;2023-02-15T13:07:19;416.08;;;82.38;;
8562;SDS011;16392;52.508;13.468;2023-02-15T13:09:47;415.85;;;83.68;;
8562;SDS011;16392;52.508;13.468;2023-02-15T13:12:16;416.50;;;82.78;;
8562;SDS011;16392;52.508;13.468;2023-02-15T13:14:46;424.50;;;88.03;;
8562;SDS011;16392;52.508;13.468;2023-02-15T13:17:16;423.77;;;87.45;;
8562;SDS011;16392;52.508;13.468;2023-02-15T13:19:47;423.83;;;86.65;;
8562;SDS011;16392;52.508;13.468;2023-02-15T13:22:18;427.58;;;89.53;;
8562;SDS011;16392;52.508;13.468;2023-02-15T13:24:48;435.08;;;92.18;;
8562;SDS011;16392;52.508;13.468;2023-02-15T13:27:18;437.02;;;93.07;;
8562;SDS011;16392;52.508;13.468;2023-02-15T13:29:48;430.33;;;93.45;;
8562;SDS011;16392;52.508;13.468;2023-02-15T13:32:22;431.45;;;93.32;;
8562;SDS011;16392;52.508;13.468;2023-02-15T13:34:54;444.77;;;90.72;;
8562;SDS011;16392;52.508;13.468;2023-02-15T13:37:30;428.15;;;94.50;;
8562;SDS011;16392;52.508;13.468;2023-02-15T13:40:15;426.92;;;90.00;;
8562;SDS011;16392;52.508;13.468;2023-02-15T13:42:49;425.48;;;89.35;;
8562;SDS011;16392;52.508;13.468;2023-02-15T13:45:22;426.08;;;89.18;;
8562;SDS011;16392;52.508;13.468;2023-02-15T13:47:59;430.73;;;90.15;;
8562;SDS011;16392;52.508;13.468;2023-02-15T13:50:35;435.88;;;96.45;;
8562;SDS011;16392;52.508;13.468;2023-02-15T13:53:15;435.50;;;100.45;;
8562;SDS011;16392;52.508;13.468;2023-02-15T13:55:55;434.33;;;95.43;;
8562;SDS011;16392;52.508;13.468;2023-02-15T13:58:31;438.95;;;99.60;;
8562;SDS011;16392;52.508;13.468;2023-02-15T14:01:15;439.63;;;100.90;;
8562;SDS011;16392;52.508;13.468;2023-02-15T14:06:47;436.95;;;97.13;;
8562;SDS011;16392;52.508;13.468;2023-02-15T14:09:28;436.50;;;98.50;;
8562;SDS011;16392;52.508;13.468;2023-02-15T14:12:07;435.77;;;99.93;;
8562;SDS011;16392;52.508;13.468;2023-02-15T14:14:54;432.10;;;98.28;;
8562;SDS011;16392;52.508;13.468;2023-02-15T14:17:47;432.30;;;91.75;;
8562;SDS011;16392;52.508;13.468;2023-02-15T14:20:23;434.75;;;93.80;;
8562;SDS011;16392;52.508;13.468;2023-02-15T14:22:57;427.80;;;91.65;;
8562;SDS011;16392;52.508;13.468;2023-02-15T14:25:30;422.90;;;86.15;;
8562;SDS011;16392;52.508;13.468;2023-02-15T14:28:02;426.35;;;88.72;;
8562;SDS011;16392;52.508;13.468;2023-02-15T14:30:34;422.30;;;84.53;;
8562;SDS011;16392;52.508;13.468;2023-02-15T14:33:04;421.88;;;86.15;;
8562;SDS011;16392;52.508;13.468;2023-02-15T14:35:34;432.02;;;85.07;;